KOEO

Details ICAO KOEO
Name L O SIMENSTAD MUNI
Region United States
Timezone America/Chicago (UTC-6.0)
Plans Departing 1
Arriving 1
Stats Elevation 903 ft / 275 m (AMSL)
Location 45.310489° -92.692443°
Runways 2
Magnetic Variation 0.300° W
Sunrise 2017-12-13 13:43:24 UTC / 2017-12-13 07:43:24 Local
Sunset 2017-12-13 22:29:37 UTC / 2017-12-13 16:29:37 Local
Advertisement - Login to hide

Runways

ID Width Length Bearing (true) Bearing (mag) Surface Threshold Offset Overrun Length
04 150 ft / 46 m 2,268 ft / 691 m 44.97° 45.27° Grass 380 ft / 116 m 0 ft / 0 m
10 75 ft / 23 m 3,792 ft / 1,156 m 103.81° 104.11° Asphalt 0 ft / 0 m 0 ft / 0 m
22 150 ft / 46 m 2,268 ft / 691 m 224.97° 225.27° Grass 0 ft / 0 m 0 ft / 0 m
28 75 ft / 23 m 3,792 ft / 1,156 m 283.82° 284.12° Asphalt 0 ft / 0 m 0 ft / 0 m

Map

Weather


0- 5 10 15 20 25 30 35+ Temperature / ° C

Clouds and Precipitation
Forecast for 2017-12-14 00:00 UTC. Updated an hour ago

Ground ~20,000 ft ~40,000 ft Winds

METAR

KOEO 132035Z AUTO 32012G16KT 10SM OVC017 M04/M07 A2967 RMK AO2 T10421075

TAF

Not found

Frequencies

Recorded 119.92 MHz AWOS 3
Approach 121.20 MHz MINNEAPOLIS APP
Unicom 122.90 MHz CTAF
Departure 121.20 MHz MINNEAPOLIS DEP
Warning: Do not use this data for real-world aviation or navigation. No guarantee of current accuracy is given.